Language selection

Features

My Weather Profile Weather Topics  | 

Johnstone Strait: Past 24 Hour Conditions

 

Georgia Strait - 46303

02:00 PM PDT 14 April 2021Buoy position: 49.03N 123.43W
Disclaimer

This table is a summary of hourly weather conditions for the past 24 hours.
Please note that these observations might not always be representative of weather conditions over their associated marine area.

Date / Time
(PDT)
Wind(knots) Wave height(m) Wave period(s) Pressure(kPa) Air tempC) Water tempC)
14 April 2021
14:00 WNW 15 gust 17 0.6 2.9 102.2 11 9
13:00 WNW 16 gust 19 0.6 3.0 102.3 10 9
12:00 WNW 15 gust 18 0.7 3.0 102.4 9 9
11:00 WNW 15 gust 18 0.7 3.1 102.5 10 9
10:00 WNW 16 gust 19 0.6 3.0 102.5 9 9
9:00 WNW 15 gust 18 0.6 3.1 102.5 9 9
8:00 WNW 17 gust 19 0.7 3.1 102.5 10 9
7:00 WNW 17 gust 20 0.7 3.1 102.5 10 9
6:00 WNW 15 gust 19 0.7 3.0 102.5 10 9
5:00 WNW 17 gust 20 0.5 2.8 102.5 10 9
4:00 WNW 16 gust 19 0.4 2.5 102.5 10 9
3:00 NW 12 gust 15 0.4 2.5 102.5 10 9
2:00 NW 13 gust 15 0.3 2.4 102.5 10 9
1:00 W 9 gust 11 0.3 2.5 102.5 10 9
0:00 WNW 11 gust 12 0.3 2.5 102.5 10 9
13 April 2021
23:00 WNW 10 gust 11 0.4 2.7 102.5 11 9
22:00 W 11 gust 12 0.5 2.8 102.5 11 9
21:00 W 12 gust 15 0.5 2.8 102.5 12 9
20:00 W 13 gust 15 0.5 3.0 102.6 12 9
19:00 W 13 gust 16 0.5 3.0 102.6 12 9
18:00 WNW 15 gust 18 N/A N/A 102.6 12 9
17:00 W 14 gust 16 0.5 3.1 102.7 11 9
16:00 WNW 12 gust 14 0.6 3.1 102.8 10 9
15:00 W 13 gust 16 0.6 2.8 102.8 10 9
14:00 WNW 15 gust 17 0.6 3.0 102.9 10 9

Zoom-in to make a selection

Map of Pacific - Georgia Basin marine weather areas Sentry Shoal - 46131 Halibut Bank - 46146 La Perouse Bank - 46206 Georgia Strait - 46303 English Bay - 46304 Discovery Island Esquimalt Harbour Kelp Reefs Malahat Race Rocks Lightstation Saturna Island Sheringham Point University of Victoria Victoria Gonzales Victoria Int'l Airport Ballenas Islands Campbell River Airport Comox Airport Entrance Island Fanny Island Nanaimo Airport Sisters Islets Estevan Point Port Alberni Tofino Airport Grief Point Howe Sound - Pam Rocks Powell River Airport Sechelt Squamish Airport Point Atkinson Sand Heads Lightstation Tsawwassen Ferry Terminal Vancouver Int'l Airport Vancouver Harbour West Vancouver
Legend:
buoy Buoy
land station Land Station

Pacific - Georgia Basin Area

Another Region

What we are doing

Date modified: